Time;durP1;ratioP1;P1;durP2;ratioP2;P2;SDS_P1;SDS_P2;PMS_P1;PMS_P2;Temp;Humidity;BMP_temperature;BMP_pressure;BME280_temperature;BME280_humidity;BME280_pressure;Samples;Min_cycle;Max_cycle;Signal;HPM_P1;HPM_P2
2021/03/31 00:00:24;;;;;;;9.27;6.87;;;8.80;99.90;;;;;;4948120;28;20458;-84
2021/03/31 00:02:53;;;;;;;9.10;5.47;;;8.70;99.90;;;;;;4949006;28;20567;-84
2021/03/31 00:05:19;;;;;;;6.80;5.30;;;8.70;99.90;;;;;;4955329;28;20943;-83
2021/03/31 00:07:44;;;;;;;7.73;5.87;;;8.60;99.90;;;;;;4947817;28;20450;-83
2021/03/31 00:10:17;;;;;;;8.80;6.13;;;8.60;99.90;;;;;;4948966;28;20197;-83
2021/03/31 00:12:42;;;;;;;9.03;6.00;;;8.60;99.90;;;;;;4954945;28;20230;-84
2021/03/31 00:15:09;;;;;;;7.97;6.07;;;8.50;99.90;;;;;;4952186;28;20445;-84
2021/03/31 00:17:34;;;;;;;6.97;5.80;;;8.50;99.90;;;;;;4968930;28;20188;-83
2021/03/31 00:20:00;;;;;;;6.33;5.47;;;8.40;99.90;;;;;;4956179;28;20478;-83
2021/03/31 00:22:26;;;;;;;14.00;6.20;;;8.30;99.90;;;;;;4955376;28;20555;-84
2021/03/31 00:24:52;;;;;;;8.10;6.10;;;8.20;99.90;;;;;;4952823;28;20194;-84
2021/03/31 00:27:17;;;;;;;9.30;6.63;;;8.10;99.90;;;;;;4971374;28;20655;-84
2021/03/31 00:29:43;;;;;;;7.77;6.97;;;8.10;99.90;;;;;;4954720;28;20560;-84
2021/03/31 00:32:08;;;;;;;9.03;6.37;;;8.10;99.90;;;;;;4954951;28;20285;-84
2021/03/31 00:34:34;;;;;;;18.43;7.17;;;8.10;99.90;;;;;;4954470;28;20649;-84
2021/03/31 00:37:00;;;;;;;9.20;7.20;;;8.10;99.90;;;;;;4957060;28;21107;-84
2021/03/31 00:39:25;;;;;;;9.00;7.47;;;8.10;99.90;;;;;;4955268;28;20296;-84
2021/03/31 00:41:51;;;;;;;7.93;7.13;;;8.20;99.90;;;;;;4968891;28;21907;-84
2021/03/31 00:44:19;;;;;;;9.37;7.73;;;8.20;99.90;;;;;;4953357;28;20190;-83
2021/03/31 00:46:45;;;;;;;8.10;6.73;;;8.10;99.90;;;;;;4955840;28;20186;-84
2021/03/31 00:49:10;;;;;;;8.30;6.13;;;8.10;99.90;;;;;;4965906;28;20997;-84
2021/03/31 00:51:36;;;;;;;9.27;7.00;;;8.20;99.90;;;;;;4961138;28;20550;-84
2021/03/31 00:54:02;;;;;;;10.03;6.67;;;8.10;99.90;;;;;;4952172;28;20201;-84
2021/03/31 00:56:30;;;;;;;6.37;5.53;;;8.10;99.90;;;;;;4954102;28;20465;-84
2021/03/31 00:58:55;;;;;;;9.80;6.13;;;8.10;99.90;;;;;;4951954;28;20440;-84
2021/03/31 01:01:22;;;;;;;9.07;6.80;;;8.20;99.90;;;;;;4956158;28;20523;-83
2021/03/31 01:03:48;;;;;;;8.27;7.47;;;8.20;99.90;;;;;;4955901;28;20186;-83
2021/03/31 01:06:13;;;;;;;8.20;6.67;;;8.10;99.90;;;;;;4953101;28;20998;-83
2021/03/31 01:08:39;;;;;;;7.73;6.73;;;8.20;99.90;;;;;;4959214;28;20194;-83
2021/03/31 01:11:05;;;;;;;8.23;6.10;;;8.20;99.90;;;;;;4973179;28;20337;-83
2021/03/31 01:13:59;;;;;;;9.17;7.73;;;8.20;99.90;;;;;;4969122;28;20636;-83
2021/03/31 01:16:57;;;;;;;8.80;7.90;;;8.20;99.90;;;;;;4955220;28;21145;-82
2021/03/31 01:19:57;;;;;;;9.47;7.50;;;8.20;99.90;;;;;;4955748;28;20462;-83
2021/03/31 01:22:32;;;;;;;8.10;7.30;;;8.20;99.90;;;;;;4957942;28;20453;-82
2021/03/31 01:25:10;;;;;;;9.20;7.83;;;8.20;99.90;;;;;;4974121;28;20554;-83
2021/03/31 01:27:50;;;;;;;8.00;7.00;;;8.20;99.90;;;;;;4972851;28;20458;-83
2021/03/31 01:30:53;;;;;;;10.13;7.70;;;8.20;99.90;;;;;;4970637;28;20442;-83
2021/03/31 01:33:22;;;;;;;10.17;7.63;;;8.20;99.90;;;;;;4974244;28;20497;-83
2021/03/31 01:35:50;;;;;;;9.43;6.50;;;8.30;99.90;;;;;;4960109;28;20446;-83
2021/03/31 01:38:16;;;;;;;7.50;6.70;;;8.30;99.90;;;;;;4953634;28;20489;-84
2021/03/31 01:40:48;;;;;;;11.10;8.33;;;8.30;99.90;;;;;;4955277;28;20509;-83
2021/03/31 01:43:18;;;;;;;12.47;11.27;;;8.20;99.80;;;;;;4960111;28;20829;-83
2021/03/31 01:46:01;;;;;;;10.53;9.43;;;8.20;99.90;;;;;;4971796;28;21047;-83
2021/03/31 01:48:31;;;;;;;8.10;7.30;;;8.20;99.90;;;;;;4956750;28;20454;-83
2021/03/31 01:51:09;;;;;;;7.63;5.70;;;8.10;99.80;;;;;;4973969;28;20460;-83
2021/03/31 01:53:37;;;;;;;6.77;5.30;;;8.10;99.90;;;;;;4956501;28;20495;-83
2021/03/31 01:56:04;;;;;;;7.10;5.47;;;8.00;99.90;;;;;;4957706;28;20448;-83
2021/03/31 01:58:31;;;;;;;8.87;5.03;;;7.90;99.90;;;;;;4955168;28;21074;-83
2021/03/31 02:01:05;;;;;;;7.93;6.20;;;7.80;99.90;;;;;;4973241;28;20484;-84
2021/03/31 02:03:31;;;;;;;8.20;5.80;;;7.80;99.90;;;;;;4973826;28;20470;-84
2021/03/31 02:05:58;;;;;;;6.70;5.47;;;7.80;99.90;;;;;;4974971;28;20786;-84
2021/03/31 02:08:25;;;;;;;7.57;5.67;;;7.80;99.90;;;;;;4972945;28;20467;-84
2021/03/31 02:10:52;;;;;;;5.53;5.03;;;7.70;99.90;;;;;;4970681;28;20449;-83
2021/03/31 02:13:19;;;;;;;5.80;5.20;;;7.80;99.90;;;;;;4959287;28;20827;-83
2021/03/31 02:15:48;;;;;;;7.53;6.10;;;7.80;99.90;;;;;;4955317;28;20448;-82
2021/03/31 02:18:18;;;;;;;9.13;7.00;;;7.80;99.90;;;;;;4955833;28;20468;-83
2021/03/31 02:20:51;;;;;;;7.10;6.00;;;7.80;99.90;;;;;;4974580;28;20846;-83
2021/03/31 02:23:18;;;;;;;7.27;5.97;;;7.80;99.90;;;;;;4955856;28;20506;-83
2021/03/31 02:25:47;;;;;;;7.23;6.57;;;7.80;99.90;;;;;;4954955;28;20449;-83
2021/03/31 02:28:13;;;;;;;8.57;5.83;;;7.70;99.90;;;;;;4958719;28;20453;-83
2021/03/31 02:30:39;;;;;;;6.37;5.77;;;7.80;99.90;;;;;;4957464;28;20764;-83
2021/03/31 02:33:07;;;;;;;6.97;5.30;;;7.80;99.90;;;;;;4958024;28;20441;-83
2021/03/31 02:35:34;;;;;;;9.10;6.60;;;7.80;99.90;;;;;;4954080;28;20670;-83
2021/03/31 02:38:04;;;;;;;10.00;5.20;;;7.70;99.90;;;;;;4970554;28;20448;-83
2021/03/31 02:40:31;;;;;;;6.73;5.10;;;7.60;99.90;;;;;;4973686;28;20642;-83
2021/03/31 02:42:59;;;;;;;5.97;5.10;;;7.60;99.90;;;;;;4958960;28;20446;-83
2021/03/31 02:45:27;;;;;;;5.80;5.20;;;7.60;99.90;;;;;;4971885;28;20582;-83
2021/03/31 02:47:55;;;;;;;5.63;5.10;;;7.60;99.90;;;;;;4955469;28;20451;-83
2021/03/31 02:50:25;;;;;;;7.67;6.03;;;7.60;99.90;;;;;;4976295;28;20545;-83
2021/03/31 02:52:52;;;;;;;5.60;5.10;;;7.70;99.90;;;;;;4969065;28;20986;-83
2021/03/31 02:55:20;;;;;;;7.33;5.70;;;7.70;99.90;;;;;;4952947;28;20450;-83
2021/03/31 02:57:47;;;;;;;6.83;5.60;;;7.70;99.90;;;;;;4969875;28;21056;-83
2021/03/31 03:00:14;;;;;;;7.53;5.60;;;7.70;99.90;;;;;;4971067;28;20857;-83
2021/03/31 03:02:43;;;;;;;7.90;6.03;;;7.70;99.90;;;;;;4955097;28;21022;-83
2021/03/31 03:05:11;;;;;;;9.80;7.00;;;7.80;99.90;;;;;;4965703;28;20813;-82
2021/03/31 03:07:37;;;;;;;8.83;5.60;;;7.80;99.90;;;;;;4958494;28;20494;-83
2021/03/31 03:10:08;;;;;;;5.80;5.20;;;7.70;99.90;;;;;;4951602;28;20465;-83
2021/03/31 03:12:46;;;;;;;8.60;5.97;;;7.70;99.90;;;;;;4955058;28;20535;-83
2021/03/31 03:15:15;;;;;;;7.73;5.60;;;7.60;99.90;;;;;;4954158;28;20914;-83
2021/03/31 03:17:41;;;;;;;7.83;5.47;;;7.60;99.90;;;;;;4971243;28;20443;-82
2021/03/31 03:20:10;;;;;;;7.07;6.00;;;7.60;99.90;;;;;;4952743;28;20496;-83
2021/03/31 03:22:38;;;;;;;7.60;6.40;;;7.60;99.90;;;;;;4958783;28;20207;-83
2021/03/31 03:25:05;;;;;;;8.13;5.90;;;7.50;99.90;;;;;;4968852;28;20444;-83
2021/03/31 03:27:32;;;;;;;8.27;6.80;;;7.50;99.90;;;;;;4972904;28;20518;-83
2021/03/31 03:29:58;;;;;;;8.30;7.47;;;7.40;99.90;;;;;;4951071;28;20856;-82
2021/03/31 03:32:24;;;;;;;10.37;7.50;;;7.40;99.90;;;;;;4955049;28;20450;-82
2021/03/31 03:34:50;;;;;;;7.67;6.87;;;7.40;99.90;;;;;;4954083;28;20729;-82
2021/03/31 03:37:19;;;;;;;12.97;6.67;;;7.40;99.90;;;;;;4972447;28;20882;-81
2021/03/31 03:39:45;;;;;;;9.03;6.20;;;7.30;99.90;;;;;;4968704;28;20494;-82
2021/03/31 03:42:11;;;;;;;6.57;5.63;;;7.30;99.90;;;;;;4955240;28;20434;-83
2021/03/31 03:44:37;;;;;;;8.93;6.20;;;7.20;99.90;;;;;;4949659;28;20502;-82
2021/03/31 03:47:04;;;;;;;7.13;6.27;;;7.00;99.90;;;;;;4972089;28;20669;-82
2021/03/31 03:49:34;;;;;;;7.00;6.03;;;7.00;99.90;;;;;;4972740;28;20194;-82
2021/03/31 03:52:00;;;;;;;7.40;6.20;;;6.90;99.90;;;;;;4959232;28;20620;-82
2021/03/31 03:54:26;;;;;;;8.43;5.33;;;6.80;99.90;;;;;;4962271;28;20529;-82
2021/03/31 03:56:52;;;;;;;7.03;6.33;;;6.80;99.90;;;;;;4957322;28;20474;-82
2021/03/31 03:59:23;;;;;;;8.03;5.97;;;6.70;99.90;;;;;;4974900;28;20194;-83
2021/03/31 04:01:50;;;;;;;7.30;6.10;;;6.70;99.90;;;;;;4973648;28;20233;-83
2021/03/31 04:04:17;;;;;;;7.67;5.73;;;6.70;99.90;;;;;;4974649;28;20460;-83
2021/03/31 04:06:43;;;;;;;6.60;5.90;;;6.60;99.90;;;;;;4956855;28;20461;-84
2021/03/31 04:09:16;;;;;;;10.33;5.60;;;6.60;99.90;;;;;;4959051;28;20468;-83
2021/03/31 04:11:44;;;;;;;10.50;6.40;;;6.60;99.90;;;;;;4959236;28;20962;-83
2021/03/31 04:14:13;;;;;;;6.63;5.87;;;6.50;99.90;;;;;;4958220;28;20588;-83
2021/03/31 04:16:45;;;;;;;9.20;5.97;;;6.50;99.90;;;;;;4973883;28;20458;-84
2021/03/31 04:19:15;;;;;;;9.87;6.17;;;6.50;99.90;;;;;;4957033;28;20855;-83
2021/03/31 04:21:41;;;;;;;8.00;6.40;;;6.60;99.90;;;;;;4956677;28;20462;-83
2021/03/31 04:24:14;;;;;;;6.70;6.00;;;6.60;99.90;;;;;;4971880;28;20476;-81
2021/03/31 04:26:40;;;;;;;7.90;5.40;;;6.50;99.90;;;;;;4973773;28;21288;-81
2021/03/31 04:29:08;;;;;;;8.00;6.17;;;6.50;99.90;;;;;;4969851;28;20537;-81
2021/03/31 04:31:36;;;;;;;6.70;6.00;;;6.50;99.90;;;;;;4959886;28;20870;-80
2021/03/31 04:34:05;;;;;;;8.93;5.70;;;6.40;99.90;;;;;;4952737;28;20452;-81
2021/03/31 04:36:31;;;;;;;8.93;7.97;;;6.40;99.90;;;;;;4951663;28;20557;-83
2021/03/31 04:38:58;;;;;;;8.27;7.47;;;6.40;99.90;;;;;;4970577;28;20465;-82
2021/03/31 04:41:24;;;;;;;7.27;6.57;;;6.40;99.90;;;;;;4953733;28;20480;-82
2021/03/31 04:43:49;;;;;;;6.97;6.30;;;6.40;99.90;;;;;;4969120;28;20457;-82
2021/03/31 04:46:15;;;;;;;11.43;6.87;;;6.40;99.90;;;;;;4950317;28;20540;-82
2021/03/31 04:48:42;;;;;;;6.90;5.37;;;6.40;99.90;;;;;;4955627;28;20194;-81
2021/03/31 04:51:08;;;;;;;8.60;6.10;;;6.30;99.90;;;;;;4956614;28;20208;-82
2021/03/31 04:53:34;;;;;;;9.57;6.30;;;6.30;99.90;;;;;;4954876;28;20446;-82
2021/03/31 04:56:00;;;;;;;7.40;5.97;;;6.30;99.90;;;;;;4968815;28;20501;-81
2021/03/31 04:58:26;;;;;;;8.37;5.57;;;6.40;99.90;;;;;;4953054;28;20461;-81
2021/03/31 05:00:51;;;;;;;8.50;5.60;;;6.40;99.90;;;;;;4952998;28;20508;-82
2021/03/31 05:03:17;;;;;;;7.70;5.70;;;6.40;99.90;;;;;;4971947;28;21065;-81
2021/03/31 05:05:43;;;;;;;8.10;5.67;;;6.30;99.90;;;;;;4954639;28;20297;-79
2021/03/31 05:08:09;;;;;;;7.90;5.70;;;6.20;99.90;;;;;;4955602;28;20552;-79
2021/03/31 05:10:35;;;;;;;7.30;5.83;;;6.10;99.90;;;;;;4956930;28;20465;-80
2021/03/31 05:13:01;;;;;;;8.30;6.20;;;6.10;99.90;;;;;;4954803;28;20229;-81
2021/03/31 05:15:26;;;;;;;6.50;5.60;;;6.10;99.90;;;;;;4971782;28;21399;-79
2021/03/31 05:17:52;;;;;;;9.10;6.30;;;6.10;99.90;;;;;;4964183;28;20592;-82
2021/03/31 05:20:18;;;;;;;6.60;6.00;;;6.00;99.90;;;;;;4952415;28;20252;-81
2021/03/31 05:22:43;;;;;;;6.17;5.57;;;6.00;99.90;;;;;;4972972;28;20679;-81
2021/03/31 05:25:10;;;;;;;8.50;5.93;;;6.10;99.90;;;;;;4954535;28;20199;-82
2021/03/31 05:27:36;;;;;;;9.63;5.33;;;6.20;99.90;;;;;;4971744;28;20219;-82
2021/03/31 05:30:05;;;;;;;13.90;5.97;;;6.30;99.90;;;;;;4957911;28;21146;-82
2021/03/31 05:32:30;;;;;;;7.60;6.10;;;6.20;99.90;;;;;;4957971;28;20712;-84
2021/03/31 05:34:56;;;;;;;7.07;6.37;;;6.30;99.90;;;;;;4973584;28;20462;-83
2021/03/31 05:37:22;;;;;;;7.73;5.73;;;6.30;99.90;;;;;;4956617;28;20265;-83
2021/03/31 05:39:47;;;;;;;9.47;6.33;;;6.40;99.90;;;;;;4954390;28;20322;-84
2021/03/31 05:42:13;;;;;;;8.23;5.83;;;6.40;99.90;;;;;;4957527;28;20195;-83
2021/03/31 05:44:39;;;;;;;6.47;5.83;;;6.40;99.90;;;;;;4965857;28;20231;-82
2021/03/31 05:47:07;;;;;;;11.50;6.83;;;6.40;99.90;;;;;;4959260;28;20229;-82
2021/03/31 05:49:33;;;;;;;7.60;6.20;;;6.50;99.90;;;;;;4973186;28;20443;-82
2021/03/31 05:52:01;;;;;;;6.37;5.77;;;6.50;99.90;;;;;;4958680;28;20810;-82
2021/03/31 05:54:27;;;;;;;9.17;6.00;;;6.50;99.90;;;;;;4964140;28;20470;-81
2021/03/31 05:56:57;;;;;;;6.93;6.23;;;6.70;99.90;;;;;;4970695;28;20509;-83
2021/03/31 05:59:25;;;;;;;7.07;6.47;;;6.70;99.90;;;;;;4971153;28;20214;-83
2021/03/31 06:01:51;;;;;;;7.03;6.00;;;6.80;99.90;;;;;;4967307;28;20827;-85
2021/03/31 06:04:18;;;;;;;10.07;7.47;;;6.90;99.90;;;;;;4953877;28;20454;-83
2021/03/31 06:06:43;;;;;;;7.83;7.00;;;7.00;99.90;;;;;;4972363;28;20217;-84
2021/03/31 06:09:12;;;;;;;9.17;6.60;;;7.10;99.90;;;;;;4972927;28;20485;-84
2021/03/31 06:11:53;;;;;;;7.33;6.20;;;7.30;99.90;;;;;;4967465;28;20248;-84
2021/03/31 06:14:30;;;;;;;8.93;6.37;;;7.50;99.90;;;;;;4956445;28;20458;-84
2021/03/31 06:17:03;;;;;;;8.57;6.43;;;7.60;99.90;;;;;;4961101;28;20574;-83
2021/03/31 06:19:30;;;;;;;11.27;7.37;;;7.70;99.90;;;;;;4973048;28;20556;-84
2021/03/31 06:24:46;;;;;;;7.70;6.90;;;7.90;99.90;;;;;;4959530;28;21009;-84
2021/03/31 06:27:13;;;;;;;6.93;6.20;;;7.90;99.90;;;;;;4952142;28;20464;-83
2021/03/31 06:29:43;;;;;;;9.63;6.90;;;7.90;99.90;;;;;;4955522;28;20483;-84
2021/03/31 06:32:19;;;;;;;10.80;6.67;;;8.00;99.90;;;;;;4958231;28;20682;-84
2021/03/31 06:34:52;;;;;;;7.50;6.80;;;8.00;99.90;;;;;;4958821;28;20450;-84
2021/03/31 06:37:30;;;;;;;9.43;7.10;;;8.00;99.90;;;;;;4970178;28;20781;-84
2021/03/31 06:39:56;;;;;;;8.80;7.53;;;8.00;99.90;;;;;;4965030;28;20503;-84
2021/03/31 06:42:43;;;;;;;9.03;7.50;;;8.20;99.90;;;;;;4955069;28;20526;-83
2021/03/31 06:47:41;;;;;;;14.00;7.77;;;8.50;99.90;;;;;;4955125;28;20503;-84
2021/03/31 06:50:10;;;;;;;8.13;7.10;;;8.60;99.90;;;;;;4969561;28;20487;-83
2021/03/31 06:52:58;;;;;;;8.17;7.37;;;8.80;99.90;;;;;;4956235;28;20442;-83
2021/03/31 06:55:28;;;;;;;11.17;7.80;;;9.00;99.90;;;;;;4957862;28;20448;-84
2021/03/31 06:57:56;;;;;;;11.83;8.10;;;9.00;99.90;;;;;;4954847;28;20438;-84
2021/03/31 07:00:35;;;;;;;11.63;8.30;;;8.90;99.90;;;;;;4953812;28;20452;-84
2021/03/31 07:03:08;;;;;;;9.07;7.80;;;9.00;99.90;;;;;;4954881;28;20456;-83
2021/03/31 07:05:40;;;;;;;9.57;7.47;;;9.30;99.90;;;;;;4972054;28;20473;-83
2021/03/31 07:08:15;;;;;;;10.17;8.17;;;9.50;99.90;;;;;;4970531;28;20437;-83
2021/03/31 07:10:43;;;;;;;8.37;7.13;;;9.80;99.90;;;;;;4951431;28;20573;-84
2021/03/31 07:13:09;;;;;;;13.07;8.57;;;10.00;99.90;;;;;;4969659;28;20805;-84
2021/03/31 07:15:35;;;;;;;9.23;7.03;;;10.40;99.90;;;;;;4953934;28;20477;-84
2021/03/31 07:18:02;;;;;;;10.80;7.93;;;10.70;99.90;;;;;;4953608;28;20470;-84
2021/03/31 07:20:30;;;;;;;8.87;7.40;;;10.90;99.20;;;;;;4954277;28;20879;-83
2021/03/31 07:22:59;;;;;;;8.80;7.77;;;11.00;98.80;;;;;;4953391;28;20612;-84
2021/03/31 07:25:25;;;;;;;8.10;7.20;;;11.20;98.40;;;;;;4956612;28;20441;-83
2021/03/31 07:27:54;;;;;;;9.20;8.20;;;11.20;98.30;;;;;;4956714;28;20476;-84
2021/03/31 07:30:23;;;;;;;8.97;7.63;;;11.30;97.80;;;;;;4956895;28;20225;-83
2021/03/31 07:32:53;;;;;;;9.93;7.93;;;11.30;97.60;;;;;;4955224;28;20452;-84
2021/03/31 07:35:24;;;;;;;9.00;7.73;;;11.40;97.40;;;;;;4968233;28;20777;-84
2021/03/31 07:37:50;;;;;;;10.93;7.50;;;11.60;97.00;;;;;;4955175;28;20445;-84
2021/03/31 07:40:18;;;;;;;9.63;7.30;;;11.60;96.60;;;;;;4956009;28;20464;-84
2021/03/31 07:42:59;;;;;;;10.03;6.90;;;11.70;96.20;;;;;;4949378;28;20779;-84
2021/03/31 07:45:31;;;;;;;8.97;7.20;;;11.80;95.70;;;;;;4952290;28;20540;-84
2021/03/31 07:47:58;;;;;;;10.53;7.27;;;11.90;95.60;;;;;;4951936;28;20477;-84
2021/03/31 07:50:24;;;;;;;9.50;7.50;;;12.10;95.10;;;;;;4971303;28;21065;-84
2021/03/31 07:52:55;;;;;;;11.63;7.97;;;12.40;94.70;;;;;;4953080;28;20521;-84
2021/03/31 07:55:42;;;;;;;9.30;8.00;;;12.60;93.80;;;;;;4952931;28;20503;-84
2021/03/31 07:58:16;;;;;;;10.67;6.93;;;12.60;93.90;;;;;;4971390;28;20950;-84
2021/03/31 08:00:46;;;;;;;11.40;8.40;;;12.70;93.40;;;;;;4966899;28;20456;-84
2021/03/31 08:03:17;;;;;;;12.80;7.97;;;12.70;93.30;;;;;;4950410;28;20515;-84
2021/03/31 08:06:09;;;;;;;10.27;8.43;;;12.80;93.60;;;;;;4952683;28;20438;-84
2021/03/31 08:08:55;;;;;;;9.90;7.90;;;12.80;93.60;;;;;;4969555;28;20789;-84
2021/03/31 08:11:39;;;;;;;18.20;9.50;;;12.80;93.50;;;;;;4950564;28;20477;-84
2021/03/31 08:14:13;;;;;;;11.87;7.73;;;12.80;93.00;;;;;;4952395;28;20474;-84
2021/03/31 08:16:41;;;;;;;10.23;8.67;;;12.70;93.20;;;;;;4953706;28;20541;-84
2021/03/31 08:19:16;;;;;;;9.80;8.13;;;12.60;94.30;;;;;;4953555;28;21163;-84
2021/03/31 08:21:44;;;;;;;10.97;8.53;;;12.60;93.80;;;;;;4953069;28;20464;-84
2021/03/31 08:24:11;;;;;;;11.47;7.10;;;12.70;93.90;;;;;;4957634;28;20557;-84
2021/03/31 08:26:38;;;;;;;11.53;7.63;;;12.90;93.20;;;;;;4951934;28;21264;-85
2021/03/31 08:29:33;;;;;;;11.87;8.00;;;13.10;92.40;;;;;;4971701;28;20951;-84
2021/03/31 08:32:06;;;;;;;12.07;7.80;;;13.40;92.10;;;;;;4953810;28;21975;-84
2021/03/31 08:34:33;;;;;;;10.33;8.00;;;13.50;92.00;;;;;;4973504;28;20449;-84
2021/03/31 08:37:04;;;;;;;11.80;7.93;;;13.50;92.00;;;;;;4974729;28;20453;-84
2021/03/31 08:39:30;;;;;;;9.23;6.87;;;13.50;91.60;;;;;;4955740;28;20465;-84
2021/03/31 08:41:57;;;;;;;8.83;7.27;;;13.50;91.60;;;;;;4955131;28;20947;-84
2021/03/31 08:47:18;;;;;;;10.27;8.30;;;14.10;91.00;;;;;;4960914;28;20476;-84
2021/03/31 08:49:45;;;;;;;9.70;8.10;;;14.30;89.70;;;;;;4959746;28;20481;-84
2021/03/31 08:52:14;;;;;;;12.87;8.40;;;14.50;90.00;;;;;;4957103;28;20460;-84
2021/03/31 08:54:51;;;;;;;11.77;7.27;;;14.70;88.80;;;;;;4973851;28;20462;-84
2021/03/31 08:57:25;;;;;;;10.13;7.30;;;15.00;87.40;;;;;;4975094;28;20472;-85
2021/03/31 08:59:57;;;;;;;10.43;7.30;;;15.50;87.30;;;;;;4954964;28;20452;-84
2021/03/31 09:02:26;;;;;;;12.33;8.23;;;15.70;83.60;;;;;;4954150;28;20445;-84
2021/03/31 09:04:56;;;;;;;12.53;7.77;;;15.70;82.80;;;;;;4952033;28;20445;-84
2021/03/31 09:07:24;;;;;;;11.13;7.83;;;15.60;80.20;;;;;;4955062;28;20548;-85
2021/03/31 09:09:51;;;;;;;13.80;8.00;;;15.60;81.70;;;;;;4974269;28;20504;-84
2021/03/31 09:12:18;;;;;;;8.90;7.43;;;15.80;82.20;;;;;;4962290;28;20496;-85
2021/03/31 09:14:50;;;;;;;10.43;6.90;;;16.10;79.80;;;;;;4974293;28;20449;-85
2021/03/31 09:17:20;;;;;;;8.50;7.43;;;16.40;79.80;;;;;;4970944;28;20438;-84
2021/03/31 09:19:47;;;;;;;12.20;8.67;;;16.70;77.10;;;;;;4970871;28;20457;-85
2021/03/31 09:22:14;;;;;;;10.60;7.90;;;17.10;76.30;;;;;;4955374;28;20449;-85
2021/03/31 09:24:48;;;;;;;11.10;7.47;;;17.40;72.60;;;;;;4943921;28;20453;-84
2021/03/31 09:27:17;;;;;;;11.10;8.10;;;17.50;70.00;;;;;;4952521;28;20810;-85
2021/03/31 09:29:44;;;;;;;11.27;9.13;;;17.50;72.70;;;;;;4964318;28;20470;-84
2021/03/31 09:32:12;;;;;;;50.37;45.77;;;17.70;68.40;;;;;;4950407;28;20895;-83
2021/03/31 09:34:38;;;;;;;10.37;9.23;;;17.90;67.00;;;;;;4952276;28;20789;-84
2021/03/31 09:37:10;;;;;;;9.87;7.93;;;18.10;66.10;;;;;;4954527;28;20453;-84
2021/03/31 09:39:54;;;;;;;10.43;8.33;;;18.20;69.00;;;;;;4949364;28;20333;-84
2021/03/31 09:42:24;;;;;;;10.23;8.30;;;18.30;65.80;;;;;;4951401;28;20527;-86
2021/03/31 09:44:51;;;;;;;9.33;8.30;;;18.60;63.30;;;;;;4946926;28;20489;-85
2021/03/31 09:47:20;;;;;;;9.67;8.27;;;18.80;62.00;;;;;;4948585;28;20556;-86
2021/03/31 09:49:49;;;;;;;9.73;7.97;;;19.00;59.80;;;;;;4952442;28;21633;-87
2021/03/31 09:52:15;;;;;;;10.37;7.70;;;19.40;61.00;;;;;;4950623;28;20437;-86
2021/03/31 09:54:47;;;;;;;14.37;9.40;;;19.00;62.30;;;;;;4967488;28;20839;-86
2021/03/31 09:57:15;;;;;;;11.93;8.60;;;19.20;61.20;;;;;;4966355;28;20976;-86
2021/03/31 09:59:41;;;;;;;11.13;8.77;;;19.50;62.60;;;;;;4967723;28;20453;-87
2021/03/31 10:02:09;;;;;;;12.47;9.93;;;19.70;59.40;;;;;;4953141;28;20435;-87
2021/03/31 10:04:37;;;;;;;12.90;8.40;;;20.10;62.30;;;;;;4960585;28;20577;-86
2021/03/31 10:07:20;;;;;;;9.00;7.40;;;20.20;57.70;;;;;;4964625;28;20442;-86
2021/03/31 10:09:48;;;;;;;13.90;8.67;;;19.90;59.30;;;;;;4948997;28;20501;-86
2021/03/31 10:12:30;;;;;;;12.83;10.33;;;20.00;55.70;;;;;;4957800;28;20434;-87
2021/03/31 10:14:58;;;;;;;14.40;9.33;;;20.10;55.40;;;;;;4951886;28;21346;-87
2021/03/31 10:17:28;;;;;;;10.50;8.47;;;20.40;57.60;;;;;;4956978;28;20504;-87
2021/03/31 10:20:05;;;;;;;10.40;7.87;;;20.90;55.10;;;;;;4967104;28;21041;-86
2021/03/31 10:22:31;;;;;;;8.10;7.30;;;21.10;51.00;;;;;;4954212;28;20807;-85
2021/03/31 10:24:57;;;;;;;11.30;7.73;;;21.30;51.10;;;;;;4947017;28;20456;-85
2021/03/31 10:27:44;;;;;;;9.17;7.63;;;21.70;51.60;;;;;;4962645;28;20288;-85
2021/03/31 10:30:32;;;;;;;9.90;7.53;;;22.00;50.80;;;;;;4952101;28;20322;-85
2021/03/31 10:32:59;;;;;;;7.77;7.00;;;22.30;49.40;;;;;;4950544;28;20453;-86
2021/03/31 10:35:52;;;;;;;9.70;7.73;;;22.50;49.20;;;;;;4969090;28;20896;-85
2021/03/31 10:50:00;;;;;;;7.10;6.33;;;22.80;45.50;;;;;;4937616;28;20497;-89
2021/03/31 10:52:37;;;;;;;7.73;6.93;;;22.90;42.60;;;;;;4951023;28;20458;-93
2021/03/31 10:55:03;;;;;;;10.33;7.00;;;22.90;42.60;;;;;;4949679;28;21029;-83
2021/03/31 10:57:29;;;;;;;11.67;7.70;;;23.40;41.90;;;;;;4949253;28;20908;-88
2021/03/31 10:59:54;;;;;;;10.40;7.93;;;23.30;40.10;;;;;;4948629;28;20450;-83
2021/03/31 11:02:20;;;;;;;8.50;7.37;;;23.50;39.90;;;;;;4954032;28;20194;-83
2021/03/31 11:04:46;;;;;;;7.80;7.00;;;23.70;40.30;;;;;;4955442;28;20186;-82
2021/03/31 11:07:11;;;;;;;9.67;7.40;;;24.00;43.10;;;;;;4966590;28;20928;-83
2021/03/31 11:09:40;;;;;;;8.73;7.83;;;23.50;40.70;;;;;;4948475;28;20224;-83
2021/03/31 11:12:07;;;;;;;9.77;7.43;;;23.40;40.00;;;;;;4949376;28;20199;-83
2021/03/31 11:14:33;;;;;;;11.90;8.17;;;23.80;44.70;;;;;;4968348;28;20441;-83
2021/03/31 11:17:03;;;;;;;9.67;8.60;;;24.10;36.70;;;;;;4954430;28;21921;-83
2021/03/31 11:27:41;;;;;;;10.03;8.40;;;24.90;36.50;;;;;;4954626;28;20819;-83
2021/03/31 11:30:10;;;;;;;8.37;7.57;;;25.20;37.20;;;;;;4950030;28;20488;-83
2021/03/31 11:32:36;;;;;;;10.33;7.87;;;25.20;36.00;;;;;;4952676;28;20340;-83
2021/03/31 11:35:04;;;;;;;8.20;7.27;;;25.00;35.40;;;;;;4954835;28;21381;-83
2021/03/31 11:37:29;;;;;;;9.30;7.90;;;24.50;31.90;;;;;;4949825;28;20492;-83
2021/03/31 11:39:55;;;;;;;9.73;7.13;;;24.50;31.40;;;;;;4968320;28;21164;-83
2021/03/31 11:42:21;;;;;;;5.87;5.40;;;24.80;29.70;;;;;;4951769;28;20195;-83
2021/03/31 11:44:46;;;;;;;7.40;5.63;;;25.30;28.10;;;;;;4966014;28;20195;-83
2021/03/31 11:47:12;;;;;;;6.67;6.00;;;25.70;28.30;;;;;;4950036;28;20193;-83
2021/03/31 11:49:38;;;;;;;6.80;6.07;;;25.90;28.40;;;;;;4969773;28;21639;-84
2021/03/31 11:52:03;;;;;;;7.20;6.23;;;26.30;30.80;;;;;;4950800;28;20715;-84
2021/03/31 11:54:29;;;;;;;7.27;6.53;;;26.50;33.60;;;;;;4952916;28;20205;-84
2021/03/31 11:56:55;;;;;;;7.27;6.57;;;26.50;29.90;;;;;;4949063;28;20477;-84
2021/03/31 11:59:21;;;;;;;8.70;6.43;;;26.40;32.00;;;;;;4952014;28;20191;-84
2021/03/31 12:01:48;;;;;;;8.67;6.90;;;26.30;31.40;;;;;;4964364;28;20201;-84
2021/03/31 12:04:13;;;;;;;8.93;8.03;;;26.20;31.50;;;;;;4969458;28;20449;-85
2021/03/31 12:06:39;;;;;;;12.30;7.20;;;26.40;34.60;;;;;;4950147;28;20460;-89
2021/03/31 12:09:07;;;;;;;10.07;6.87;;;26.70;34.80;;;;;;4968648;28;20190;-85
2021/03/31 12:11:33;;;;;;;8.10;7.40;;;26.90;32.20;;;;;;4953772;28;20222;-84
2021/03/31 12:13:58;;;;;;;9.10;7.40;;;26.80;33.20;;;;;;4951552;28;20456;-85
2021/03/31 12:16:24;;;;;;;9.03;7.43;;;26.70;34.40;;;;;;4969128;28;20563;-85
2021/03/31 12:18:50;;;;;;;7.93;6.57;;;26.90;30.80;;;;;;4953646;28;20253;-83
2021/03/31 12:21:15;;;;;;;7.17;6.47;;;27.10;33.40;;;;;;4973399;28;20285;-84
2021/03/31 12:23:41;;;;;;;8.93;6.60;;;27.20;31.50;;;;;;4954140;28;20695;-85
2021/03/31 12:26:07;;;;;;;10.83;6.90;;;27.10;33.50;;;;;;4951259;28;21138;-85
2021/03/31 12:28:35;;;;;;;8.43;7.37;;;27.20;30.90;;;;;;4956412;28;20570;-85
2021/03/31 12:31:04;;;;;;;11.83;7.50;;;27.50;30.70;;;;;;4955704;28;20580;-84
2021/03/31 12:33:29;;;;;;;8.30;6.93;;;26.40;30.50;;;;;;4957646;28;20453;-85
2021/03/31 12:35:55;;;;;;;10.00;7.57;;;26.60;30.40;;;;;;4949960;28;20442;-85
2021/03/31 12:38:21;;;;;;;8.90;7.07;;;26.50;29.00;;;;;;4952643;28;20252;-84
2021/03/31 12:40:47;;;;;;;8.80;6.50;;;26.90;32.60;;;;;;4954827;28;20598;-84
2021/03/31 12:43:13;;;;;;;10.47;6.90;;;27.60;30.50;;;;;;4952482;28;20547;-85
2021/03/31 12:45:39;;;;;;;8.67;5.77;;;27.90;30.90;;;;;;4954454;28;20437;-84
2021/03/31 12:48:06;;;;;;;9.27;6.40;;;28.20;28.80;;;;;;4958385;28;20197;-85
2021/03/31 12:50:59;;;;;;;7.00;6.30;;;28.50;28.80;;;;;;4951251;28;20234;-84
2021/03/31 12:53:28;;;;;;;10.00;9.00;;;28.20;30.20;;;;;;4966872;28;20478;-84
2021/03/31 12:55:58;;;;;;;8.13;7.37;;;27.50;29.40;;;;;;4957004;28;20454;-84
2021/03/31 12:58:24;;;;;;;12.63;8.00;;;27.10;28.20;;;;;;4951044;28;20462;-86
2021/03/31 13:00:52;;;;;;;8.50;7.60;;;27.30;32.40;;;;;;4971009;28;20459;-85
2021/03/31 13:03:18;;;;;;;7.17;6.43;;;27.70;29.30;;;;;;4969457;28;20241;-85
2021/03/31 13:05:43;;;;;;;8.83;7.97;;;27.50;28.00;;;;;;4971547;28;21002;-84
2021/03/31 13:08:11;;;;;;;11.40;7.13;;;26.70;28.00;;;;;;4955731;28;20253;-84
2021/03/31 13:10:36;;;;;;;7.83;6.70;;;26.70;29.40;;;;;;4968444;28;20222;-85
2021/03/31 13:15:42;;;;;;;9.70;8.03;;;27.30;28.00;;;;;;4951306;28;20199;-84
2021/03/31 13:31:39;;;;;;;8.83;7.73;;;28.70;28.00;;;;;;4955063;28;20500;-83
2021/03/31 13:34:10;;;;;;;9.67;8.70;;;29.30;29.70;;;;;;4948102;28;20453;-84
2021/03/31 13:41:33;;;;;;;10.30;8.30;;;29.00;26.30;;;;;;4951864;28;20485;-83
2021/03/31 13:43:58;;;;;;;9.90;8.27;;;29.40;28.80;;;;;;4947478;28;20244;-81
2021/03/31 13:46:24;;;;;;;9.27;8.10;;;29.50;30.10;;;;;;4945166;28;20544;-81
2021/03/31 13:51:25;;;;;;;10.30;8.10;;;30.00;27.20;;;;;;4950303;28;20293;-81